sensor_id;sensor_type;location;lat;lon;timestamp;P1;durP1;ratioP1;P2;durP2;ratioP2
69856;SDS011;57147;53.582;10.112;2023-09-08T00:04:01;7.03;;;6.30;;
69856;SDS011;57147;53.582;10.112;2023-09-08T00:09:05;7.60;;;6.07;;
69856;SDS011;57147;53.582;10.112;2023-09-08T00:14:05;6.78;;;5.95;;
69856;SDS011;57147;53.582;10.112;2023-09-08T00:19:06;8.45;;;5.35;;
69856;SDS011;57147;53.582;10.112;2023-09-08T00:24:09;7.15;;;6.47;;
69856;SDS011;57147;53.582;10.112;2023-09-08T00:29:10;6.78;;;4.78;;
69856;SDS011;57147;53.582;10.112;2023-09-08T00:34:12;6.45;;;5.80;;
69856;SDS011;57147;53.582;10.112;2023-09-08T00:39:15;6.57;;;5.90;;
69856;SDS011;57147;53.582;10.112;2023-09-08T00:44:16;6.28;;;5.32;;
69856;SDS011;57147;53.582;10.112;2023-09-08T00:49:17;6.80;;;5.70;;
69856;SDS011;57147;53.582;10.112;2023-09-08T00:54:21;6.82;;;6.20;;
69856;SDS011;57147;53.582;10.112;2023-09-08T00:59:21;6.43;;;4.53;;
69856;SDS011;57147;53.582;10.112;2023-09-08T01:04:22;7.15;;;6.53;;
69856;SDS011;57147;53.582;10.112;2023-09-08T01:09:25;7.45;;;6.32;;
69856;SDS011;57147;53.582;10.112;2023-09-08T01:14:27;6.95;;;5.90;;
69856;SDS011;57147;53.582;10.112;2023-09-08T01:19:27;7.88;;;6.30;;
69856;SDS011;57147;53.582;10.112;2023-09-08T01:24:37;7.45;;;6.32;;
69856;SDS011;57147;53.582;10.112;2023-09-08T01:29:59;7.47;;;6.47;;
69856;SDS011;57147;53.582;10.112;2023-09-08T01:35:01;6.82;;;4.60;;
69856;SDS011;57147;53.582;10.112;2023-09-08T01:40:06;6.75;;;5.95;;
69856;SDS011;57147;53.582;10.112;2023-09-08T01:45:08;8.45;;;7.75;;
69856;SDS011;57147;53.582;10.112;2023-09-08T01:50:09;6.95;;;6.25;;
69856;SDS011;57147;53.582;10.112;2023-09-08T01:55:12;8.00;;;7.30;;
69856;SDS011;57147;53.582;10.112;2023-09-08T02:00:13;7.47;;;6.85;;
69856;SDS011;57147;53.582;10.112;2023-09-08T02:05:14;8.35;;;6.38;;
69856;SDS011;57147;53.582;10.112;2023-09-08T02:10:17;7.68;;;6.93;;
69856;SDS011;57147;53.582;10.112;2023-09-08T02:15:18;8.45;;;7.65;;
69856;SDS011;57147;53.582;10.112;2023-09-08T02:20:19;7.38;;;6.53;;
69856;SDS011;57147;53.582;10.112;2023-09-08T02:25:22;7.47;;;6.78;;
69856;SDS011;57147;53.582;10.112;2023-09-08T02:30:23;7.85;;;7.05;;
69856;SDS011;57147;53.582;10.112;2023-09-08T02:35:24;8.13;;;7.32;;
69856;SDS011;57147;53.582;10.112;2023-09-08T02:40:27;7.78;;;6.97;;
69856;SDS011;57147;53.582;10.112;2023-09-08T02:45:28;7.70;;;6.85;;
69856;SDS011;57147;53.582;10.112;2023-09-08T02:50:29;7.80;;;6.72;;
69856;SDS011;57147;53.582;10.112;2023-09-08T02:55:32;7.85;;;7.00;;
69856;SDS011;57147;53.582;10.112;2023-09-08T03:00:33;7.28;;;6.57;;
69856;SDS011;57147;53.582;10.112;2023-09-08T03:05:33;9.23;;;8.20;;
69856;SDS011;57147;53.582;10.112;2023-09-08T03:10:36;8.80;;;7.90;;
69856;SDS011;57147;53.582;10.112;2023-09-08T03:15:40;7.72;;;6.93;;
69856;SDS011;57147;53.582;10.112;2023-09-08T03:20:41;9.32;;;6.93;;
69856;SDS011;57147;53.582;10.112;2023-09-08T03:25:44;7.95;;;7.05;;
69856;SDS011;57147;53.582;10.112;2023-09-08T03:30:45;8.43;;;7.47;;
69856;SDS011;57147;53.582;10.112;2023-09-08T03:35:45;7.55;;;6.80;;
69856;SDS011;57147;53.582;10.112;2023-09-08T03:40:49;8.10;;;6.85;;
69856;SDS011;57147;53.582;10.112;2023-09-08T03:45:49;8.77;;;7.25;;
69856;SDS011;57147;53.582;10.112;2023-09-08T03:50:50;7.97;;;7.22;;
69856;SDS011;57147;53.582;10.112;2023-09-08T03:55:53;8.80;;;7.32;;
69856;SDS011;57147;53.582;10.112;2023-09-08T04:00:54;7.65;;;6.85;;
69856;SDS011;57147;53.582;10.112;2023-09-08T04:05:54;7.65;;;6.57;;
69856;SDS011;57147;53.582;10.112;2023-09-08T04:11:00;8.75;;;7.90;;
69856;SDS011;57147;53.582;10.112;2023-09-08T04:16:01;9.07;;;7.97;;
69856;SDS011;57147;53.582;10.112;2023-09-08T04:21:01;8.80;;;7.97;;
69856;SDS011;57147;53.582;10.112;2023-09-08T04:26:05;9.02;;;7.88;;
69856;SDS011;57147;53.582;10.112;2023-09-08T04:31:05;8.48;;;7.55;;
69856;SDS011;57147;53.582;10.112;2023-09-08T04:36:06;8.93;;;7.22;;
69856;SDS011;57147;53.582;10.112;2023-09-08T04:41:09;8.02;;;7.18;;
69856;SDS011;57147;53.582;10.112;2023-09-08T04:46:10;9.80;;;6.18;;
69856;SDS011;57147;53.582;10.112;2023-09-08T04:51:10;8.68;;;7.65;;
69856;SDS011;57147;53.582;10.112;2023-09-08T04:56:13;8.38;;;7.57;;
69856;SDS011;57147;53.582;10.112;2023-09-08T05:01:14;11.30;;;8.85;;
69856;SDS011;57147;53.582;10.112;2023-09-08T05:06:14;9.27;;;8.35;;
69856;SDS011;57147;53.582;10.112;2023-09-08T05:11:18;7.93;;;6.20;;
69856;SDS011;57147;53.582;10.112;2023-09-08T05:16:18;10.18;;;7.93;;
69856;SDS011;57147;53.582;10.112;2023-09-08T05:21:19;11.32;;;10.18;;
69856;SDS011;57147;53.582;10.112;2023-09-08T05:26:22;11.07;;;7.78;;
69856;SDS011;57147;53.582;10.112;2023-09-08T05:31:23;10.15;;;8.38;;
69856;SDS011;57147;53.582;10.112;2023-09-08T05:36:23;12.02;;;8.70;;
69856;SDS011;57147;53.582;10.112;2023-09-08T05:41:27;9.30;;;5.43;;
69856;SDS011;57147;53.582;10.112;2023-09-08T05:46:27;9.32;;;7.55;;
69856;SDS011;57147;53.582;10.112;2023-09-08T05:51:28;9.80;;;8.45;;
69856;SDS011;57147;53.582;10.112;2023-09-08T05:56:33;8.57;;;7.72;;
69856;SDS011;57147;53.582;10.112;2023-09-08T06:01:35;9.73;;;8.68;;
69856;SDS011;57147;53.582;10.112;2023-09-08T06:06:36;7.47;;;5.70;;
69856;SDS011;57147;53.582;10.112;2023-09-08T06:11:40;8.85;;;7.70;;
69856;SDS011;57147;53.582;10.112;2023-09-08T06:16:40;10.00;;;9.00;;
69856;SDS011;57147;53.582;10.112;2023-09-08T06:21:41;11.57;;;8.07;;
69856;SDS011;57147;53.582;10.112;2023-09-08T06:26:44;8.15;;;5.40;;
69856;SDS011;57147;53.582;10.112;2023-09-08T06:31:45;9.35;;;6.93;;
69856;SDS011;57147;53.582;10.112;2023-09-08T06:36:45;8.68;;;6.25;;
69856;SDS011;57147;53.582;10.112;2023-09-08T06:41:49;10.13;;;9.13;;
69856;SDS011;57147;53.582;10.112;2023-09-08T06:46:49;9.15;;;8.00;;
69856;SDS011;57147;53.582;10.112;2023-09-08T06:51:50;9.82;;;8.48;;
69856;SDS011;57147;53.582;10.112;2023-09-08T06:56:53;11.00;;;9.55;;
69856;SDS011;57147;53.582;10.112;2023-09-08T07:01:54;8.95;;;8.05;;
69856;SDS011;57147;53.582;10.112;2023-09-08T07:06:54;10.25;;;9.10;;
69856;SDS011;57147;53.582;10.112;2023-09-08T07:11:58;10.60;;;7.70;;
69856;SDS011;57147;53.582;10.112;2023-09-08T07:16:58;10.73;;;7.72;;
69856;SDS011;57147;53.582;10.112;2023-09-08T07:21:59;7.90;;;5.18;;
69856;SDS011;57147;53.582;10.112;2023-09-08T07:27:03;6.97;;;5.95;;
69856;SDS011;57147;53.582;10.112;2023-09-08T07:32:13;8.73;;;7.82;;
69856;SDS011;57147;53.582;10.112;2023-09-08T07:37:57;8.85;;;7.07;;
69856;SDS011;57147;53.582;10.112;2023-09-08T07:43:00;8.95;;;6.60;;
69856;SDS011;57147;53.582;10.112;2023-09-08T07:48:02;9.48;;;7.65;;
69856;SDS011;57147;53.582;10.112;2023-09-08T07:53:03;7.60;;;6.88;;
69856;SDS011;57147;53.582;10.112;2023-09-08T07:58:07;6.57;;;5.93;;
69856;SDS011;57147;53.582;10.112;2023-09-08T08:03:11;7.18;;;6.30;;
69856;SDS011;57147;53.582;10.112;2023-09-08T08:08:13;10.27;;;9.07;;
69856;SDS011;57147;53.582;10.112;2023-09-08T08:13:20;7.55;;;5.50;;
69856;SDS011;57147;53.582;10.112;2023-09-08T08:18:23;6.95;;;6.22;;
69856;SDS011;57147;53.582;10.112;2023-09-08T08:23:36;9.43;;;8.30;;
69856;SDS011;57147;53.582;10.112;2023-09-08T08:28:39;7.78;;;6.78;;
69856;SDS011;57147;53.582;10.112;2023-09-08T08:33:44;6.13;;;5.53;;
69856;SDS011;57147;53.582;10.112;2023-09-08T08:38:47;7.85;;;7.07;;
69856;SDS011;57147;53.582;10.112;2023-09-08T08:43:52;11.07;;;8.40;;
69856;SDS011;57147;53.582;10.112;2023-09-08T08:48:54;7.15;;;6.28;;
69856;SDS011;57147;53.582;10.112;2023-09-08T08:54:00;7.78;;;6.57;;
69856;SDS011;57147;53.582;10.112;2023-09-08T08:59:04;8.77;;;6.45;;
69856;SDS011;57147;53.582;10.112;2023-09-08T09:04:06;9.52;;;7.30;;
69856;SDS011;57147;53.582;10.112;2023-09-08T09:09:10;7.40;;;6.03;;
69856;SDS011;57147;53.582;10.112;2023-09-08T09:19:17;6.50;;;5.38;;
69856;SDS011;57147;53.582;10.112;2023-09-08T09:24:28;7.85;;;5.82;;
69856;SDS011;57147;53.582;10.112;2023-09-08T09:29:32;7.13;;;5.45;;
69856;SDS011;57147;53.582;10.112;2023-09-08T09:34:35;7.60;;;6.85;;
69856;SDS011;57147;53.582;10.112;2023-09-08T09:39:35;6.43;;;5.82;;
69856;SDS011;57147;53.582;10.112;2023-09-08T09:44:39;5.75;;;4.95;;
69856;SDS011;57147;53.582;10.112;2023-09-08T09:49:42;6.47;;;5.88;;
69856;SDS011;57147;53.582;10.112;2023-09-08T09:54:44;5.95;;;5.35;;
69856;SDS011;57147;53.582;10.112;2023-09-08T09:59:47;6.47;;;4.75;;
69856;SDS011;57147;53.582;10.112;2023-09-08T10:09:49;5.53;;;5.03;;
69856;SDS011;57147;53.582;10.112;2023-09-08T10:14:53;6.32;;;5.70;;
69856;SDS011;57147;53.582;10.112;2023-09-08T10:19:57;6.32;;;5.55;;
69856;SDS011;57147;53.582;10.112;2023-09-08T10:25:01;6.35;;;4.82;;
69856;SDS011;57147;53.582;10.112;2023-09-08T10:30:09;6.35;;;3.65;;
69856;SDS011;57147;53.582;10.112;2023-09-08T10:35:10;5.75;;;5.18;;
69856;SDS011;57147;53.582;10.112;2023-09-08T10:40:20;5.93;;;4.78;;
69856;SDS011;57147;53.582;10.112;2023-09-08T10:45:24;6.22;;;4.78;;
69856;SDS011;57147;53.582;10.112;2023-09-08T10:50:26;5.90;;;5.00;;
69856;SDS011;57147;53.582;10.112;2023-09-08T10:55:41;6.00;;;5.35;;
69856;SDS011;57147;53.582;10.112;2023-09-08T11:00:46;6.32;;;5.20;;
69856;SDS011;57147;53.582;10.112;2023-09-08T11:05:47;6.57;;;4.75;;
69856;SDS011;57147;53.582;10.112;2023-09-08T11:10:48;6.07;;;5.28;;
69856;SDS011;57147;53.582;10.112;2023-09-08T11:15:53;5.47;;;4.45;;
69856;SDS011;57147;53.582;10.112;2023-09-08T11:20:54;4.53;;;4.13;;
69856;SDS011;57147;53.582;10.112;2023-09-08T11:25:55;6.88;;;5.63;;
69856;SDS011;57147;53.582;10.112;2023-09-08T11:30:58;5.25;;;4.75;;
69856;SDS011;57147;53.582;10.112;2023-09-08T11:35:59;5.15;;;4.57;;
69856;SDS011;57147;53.582;10.112;2023-09-08T11:41:00;6.40;;;4.47;;
69856;SDS011;57147;53.582;10.112;2023-09-08T11:46:04;4.75;;;4.22;;
69856;SDS011;57147;53.582;10.112;2023-09-08T11:51:07;5.65;;;4.45;;
69856;SDS011;57147;53.582;10.112;2023-09-08T11:56:08;5.50;;;4.93;;
69856;SDS011;57147;53.582;10.112;2023-09-08T12:01:12;7.78;;;5.40;;
69856;SDS011;57147;53.582;10.112;2023-09-08T12:06:13;7.60;;;4.35;;
69856;SDS011;57147;53.582;10.112;2023-09-08T12:11:14;6.47;;;5.57;;
69856;SDS011;57147;53.582;10.112;2023-09-08T12:16:20;5.28;;;3.53;;
69856;SDS011;57147;53.582;10.112;2023-09-08T12:21:21;6.15;;;4.95;;
69856;SDS011;57147;53.582;10.112;2023-09-08T12:26:24;5.57;;;4.93;;
69856;SDS011;57147;53.582;10.112;2023-09-08T12:31:27;4.95;;;4.38;;
69856;SDS011;57147;53.582;10.112;2023-09-08T12:41:28;6.03;;;5.53;;
69856;SDS011;57147;53.582;10.112;2023-09-08T12:46:31;4.32;;;3.92;;
69856;SDS011;57147;53.582;10.112;2023-09-08T12:56:34;5.18;;;4.35;;
69856;SDS011;57147;53.582;10.112;2023-09-08T13:01:40;6.07;;;4.80;;
69856;SDS011;57147;53.582;10.112;2023-09-08T13:06:40;4.55;;;4.00;;
69856;SDS011;57147;53.582;10.112;2023-09-08T13:11:41;4.25;;;3.85;;
69856;SDS011;57147;53.582;10.112;2023-09-08T13:16:45;5.30;;;4.05;;
69856;SDS011;57147;53.582;10.112;2023-09-08T13:26:45;6.30;;;3.97;;
69856;SDS011;57147;53.582;10.112;2023-09-08T13:31:49;4.22;;;3.00;;
69856;SDS011;57147;53.582;10.112;2023-09-08T13:36:49;3.97;;;3.53;;
69856;SDS011;57147;53.582;10.112;2023-09-08T13:41:50;3.67;;;2.63;;
69856;SDS011;57147;53.582;10.112;2023-09-08T13:46:54;3.45;;;3.13;;
69856;SDS011;57147;53.582;10.112;2023-09-08T13:51:55;2.88;;;2.15;;
69856;SDS011;57147;53.582;10.112;2023-09-08T13:56:59;4.60;;;3.58;;
69856;SDS011;57147;53.582;10.112;2023-09-08T14:02:09;3.88;;;3.47;;
69856;SDS011;57147;53.582;10.112;2023-09-08T14:07:09;4.97;;;4.43;;
69856;SDS011;57147;53.582;10.112;2023-09-08T14:12:10;3.53;;;3.05;;
69856;SDS011;57147;53.582;10.112;2023-09-08T14:17:13;4.32;;;3.83;;
69856;SDS011;57147;53.582;10.112;2023-09-08T14:22:14;4.07;;;3.33;;
69856;SDS011;57147;53.582;10.112;2023-09-08T14:27:14;3.25;;;2.88;;
69856;SDS011;57147;53.582;10.112;2023-09-08T14:32:18;4.45;;;4.05;;
69856;SDS011;57147;53.582;10.112;2023-09-08T14:37:18;5.22;;;3.97;;
69856;SDS011;57147;53.582;10.112;2023-09-08T14:42:21;5.18;;;4.45;;
69856;SDS011;57147;53.582;10.112;2023-09-08T14:47:26;4.30;;;3.67;;
69856;SDS011;57147;53.582;10.112;2023-09-08T14:52:27;5.65;;;3.88;;
69856;SDS011;57147;53.582;10.112;2023-09-08T14:57:27;4.55;;;4.15;;
69856;SDS011;57147;53.582;10.112;2023-09-08T15:02:30;3.60;;;3.30;;
69856;SDS011;57147;53.582;10.112;2023-09-08T15:13:02;4.20;;;3.45;;
69856;SDS011;57147;53.582;10.112;2023-09-08T15:18:06;4.40;;;3.92;;
69856;SDS011;57147;53.582;10.112;2023-09-08T15:23:07;5.35;;;4.63;;
69856;SDS011;57147;53.582;10.112;2023-09-08T15:28:08;4.82;;;4.43;;
69856;SDS011;57147;53.582;10.112;2023-09-08T15:33:11;4.97;;;4.47;;
69856;SDS011;57147;53.582;10.112;2023-09-08T15:38:12;4.28;;;3.83;;
69856;SDS011;57147;53.582;10.112;2023-09-08T15:43:12;5.28;;;4.15;;
69856;SDS011;57147;53.582;10.112;2023-09-08T15:48:16;7.85;;;4.30;;
69856;SDS011;57147;53.582;10.112;2023-09-08T15:53:16;6.57;;;4.13;;
69856;SDS011;57147;53.582;10.112;2023-09-08T15:58:17;5.50;;;3.97;;
69856;SDS011;57147;53.582;10.112;2023-09-08T16:03:20;6.18;;;4.90;;
69856;SDS011;57147;53.582;10.112;2023-09-08T16:13:23;4.65;;;4.22;;
69856;SDS011;57147;53.582;10.112;2023-09-08T16:18:26;12.10;;;5.47;;
69856;SDS011;57147;53.582;10.112;2023-09-08T16:23:27;10.48;;;5.78;;
69856;SDS011;57147;53.582;10.112;2023-09-08T16:28:27;6.28;;;5.68;;
69856;SDS011;57147;53.582;10.112;2023-09-08T16:33:30;7.72;;;4.38;;
69856;SDS011;57147;53.582;10.112;2023-09-08T16:38:31;11.05;;;5.60;;
69856;SDS011;57147;53.582;10.112;2023-09-08T16:43:31;5.95;;;3.45;;
69856;SDS011;57147;53.582;10.112;2023-09-08T16:48:35;5.85;;;4.30;;
69856;SDS011;57147;53.582;10.112;2023-09-08T16:58:35;32.17;;;27.33;;
69856;SDS011;57147;53.582;10.112;2023-09-08T17:03:39;8.45;;;5.72;;
69856;SDS011;57147;53.582;10.112;2023-09-08T17:13:40;7.38;;;6.13;;
69856;SDS011;57147;53.582;10.112;2023-09-08T17:18:43;7.68;;;5.88;;
69856;SDS011;57147;53.582;10.112;2023-09-08T17:23:43;8.95;;;7.18;;
69856;SDS011;57147;53.582;10.112;2023-09-08T17:28:46;9.45;;;7.50;;
69856;SDS011;57147;53.582;10.112;2023-09-08T17:33:49;10.40;;;8.57;;
69856;SDS011;57147;53.582;10.112;2023-09-08T17:38:49;10.25;;;7.32;;
69856;SDS011;57147;53.582;10.112;2023-09-08T17:43:50;9.90;;;6.95;;
69856;SDS011;57147;53.582;10.112;2023-09-08T17:48:53;11.50;;;8.57;;
69856;SDS011;57147;53.582;10.112;2023-09-08T17:53:54;15.48;;;13.32;;
69856;SDS011;57147;53.582;10.112;2023-09-08T17:58:54;13.38;;;11.43;;
69856;SDS011;57147;53.582;10.112;2023-09-08T18:03:58;36.83;;;32.42;;
69856;SDS011;57147;53.582;10.112;2023-09-08T18:08:58;22.13;;;19.83;;
69856;SDS011;57147;53.582;10.112;2023-09-08T18:13:59;15.68;;;12.40;;
69856;SDS011;57147;53.582;10.112;2023-09-08T18:19:02;14.48;;;9.45;;
69856;SDS011;57147;53.582;10.112;2023-09-08T18:24:03;14.32;;;10.75;;
69856;SDS011;57147;53.582;10.112;2023-09-08T18:29:04;17.35;;;12.55;;
69856;SDS011;57147;53.582;10.112;2023-09-08T18:34:07;15.38;;;12.93;;
69856;SDS011;57147;53.582;10.112;2023-09-08T18:39:08;12.68;;;11.35;;
69856;SDS011;57147;53.582;10.112;2023-09-08T18:44:08;16.02;;;12.73;;
69856;SDS011;57147;53.582;10.112;2023-09-08T18:49:12;13.77;;;10.60;;
69856;SDS011;57147;53.582;10.112;2023-09-08T18:54:15;11.75;;;9.70;;
69856;SDS011;57147;53.582;10.112;2023-09-08T18:59:16;13.68;;;10.85;;
69856;SDS011;57147;53.582;10.112;2023-09-08T19:04:24;17.60;;;12.73;;
69856;SDS011;57147;53.582;10.112;2023-09-08T19:09:41;18.33;;;14.85;;
69856;SDS011;57147;53.582;10.112;2023-09-08T19:14:42;22.75;;;20.02;;
69856;SDS011;57147;53.582;10.112;2023-09-08T19:19:45;18.35;;;14.73;;
69856;SDS011;57147;53.582;10.112;2023-09-08T19:24:45;13.88;;;11.93;;
69856;SDS011;57147;53.582;10.112;2023-09-08T19:29:51;14.13;;;12.15;;
69856;SDS011;57147;53.582;10.112;2023-09-08T19:34:54;16.10;;;14.43;;
69856;SDS011;57147;53.582;10.112;2023-09-08T19:39:55;13.00;;;11.55;;
69856;SDS011;57147;53.582;10.112;2023-09-08T19:44:56;15.95;;;14.10;;
69856;SDS011;57147;53.582;10.112;2023-09-08T19:50:00;15.10;;;11.07;;
69856;SDS011;57147;53.582;10.112;2023-09-08T19:55:01;13.32;;;11.55;;
69856;SDS011;57147;53.582;10.112;2023-09-08T20:00:02;11.45;;;9.18;;
69856;SDS011;57147;53.582;10.112;2023-09-08T20:05:06;8.77;;;7.65;;
69856;SDS011;57147;53.582;10.112;2023-09-08T20:10:10;9.20;;;7.90;;
69856;SDS011;57147;53.582;10.112;2023-09-08T20:15:14;12.07;;;8.27;;
69856;SDS011;57147;53.582;10.112;2023-09-08T20:20:17;22.67;;;16.90;;
69856;SDS011;57147;53.582;10.112;2023-09-08T20:25:18;14.00;;;11.07;;
69856;SDS011;57147;53.582;10.112;2023-09-08T20:30:19;15.35;;;12.13;;
69856;SDS011;57147;53.582;10.112;2023-09-08T20:35:22;14.15;;;11.05;;
69856;SDS011;57147;53.582;10.112;2023-09-08T20:40:24;14.48;;;12.93;;
69856;SDS011;57147;53.582;10.112;2023-09-08T20:45:25;17.05;;;13.70;;
69856;SDS011;57147;53.582;10.112;2023-09-08T20:50:28;12.63;;;11.13;;
69856;SDS011;57147;53.582;10.112;2023-09-08T20:55:28;37.65;;;29.45;;
69856;SDS011;57147;53.582;10.112;2023-09-08T21:00:29;25.58;;;21.83;;
69856;SDS011;57147;53.582;10.112;2023-09-08T21:05:32;14.68;;;12.18;;
69856;SDS011;57147;53.582;10.112;2023-09-08T21:10:33;16.70;;;14.00;;
69856;SDS011;57147;53.582;10.112;2023-09-08T21:15:34;13.15;;;11.48;;
69856;SDS011;57147;53.582;10.112;2023-09-08T21:20:37;13.10;;;11.70;;
69856;SDS011;57147;53.582;10.112;2023-09-08T21:25:37;13.50;;;10.57;;
69856;SDS011;57147;53.582;10.112;2023-09-08T21:30:38;10.80;;;9.10;;
69856;SDS011;57147;53.582;10.112;2023-09-08T21:35:41;7.90;;;6.75;;
69856;SDS011;57147;53.582;10.112;2023-09-08T21:40:42;9.10;;;7.55;;
69856;SDS011;57147;53.582;10.112;2023-09-08T21:45:43;9.65;;;8.13;;
69856;SDS011;57147;53.582;10.112;2023-09-08T21:50:46;13.88;;;11.85;;
69856;SDS011;57147;53.582;10.112;2023-09-08T21:55:46;13.43;;;11.82;;
69856;SDS011;57147;53.582;10.112;2023-09-08T22:00:47;12.02;;;10.50;;
69856;SDS011;57147;53.582;10.112;2023-09-08T22:05:50;30.27;;;26.13;;
69856;SDS011;57147;53.582;10.112;2023-09-08T22:10:51;21.58;;;19.25;;
69856;SDS011;57147;53.582;10.112;2023-09-08T22:15:51;16.90;;;14.60;;
69856;SDS011;57147;53.582;10.112;2023-09-08T22:20:55;16.13;;;12.48;;
69856;SDS011;57147;53.582;10.112;2023-09-08T22:25:56;14.70;;;13.02;;
69856;SDS011;57147;53.582;10.112;2023-09-08T22:30:56;9.35;;;7.95;;
69856;SDS011;57147;53.582;10.112;2023-09-08T22:36:00;9.45;;;8.20;;
69856;SDS011;57147;53.582;10.112;2023-09-08T22:41:00;8.70;;;7.80;;
69856;SDS011;57147;53.582;10.112;2023-09-08T22:46:01;10.45;;;9.15;;
69856;SDS011;57147;53.582;10.112;2023-09-08T22:51:05;9.45;;;7.95;;
69856;SDS011;57147;53.582;10.112;2023-09-08T22:56:05;11.52;;;10.30;;
69856;SDS011;57147;53.582;10.112;2023-09-08T23:01:06;9.90;;;8.90;;
69856;SDS011;57147;53.582;10.112;2023-09-08T23:17:05;9.52;;;8.52;;
69856;SDS011;57147;53.582;10.112;2023-09-08T23:22:05;9.90;;;8.90;;
69856;SDS011;57147;53.582;10.112;2023-09-08T23:27:15;12.45;;;9.90;;
69856;SDS011;57147;53.582;10.112;2023-09-08T23:32:15;14.65;;;13.10;;
69856;SDS011;57147;53.582;10.112;2023-09-08T23:37:16;10.10;;;9.00;;
69856;SDS011;57147;53.582;10.112;2023-09-08T23:42:19;10.88;;;9.45;;
69856;SDS011;57147;53.582;10.112;2023-09-08T23:47:20;15.00;;;13.50;;
69856;SDS011;57147;53.582;10.112;2023-09-08T23:52:20;16.08;;;14.10;;
69856;SDS011;57147;53.582;10.112;2023-09-08T23:57:24;14.07;;;12.60;;
